createdAt,value
2018-08-03T00:00:19.607Z,0
2018-08-03T00:01:20.325Z,0
2018-08-03T00:02:21.046Z,0
2018-08-03T00:03:21.765Z,0
2018-08-03T00:04:22.487Z,0
2018-08-03T00:05:23.208Z,0
2018-08-03T00:06:23.942Z,0
2018-08-03T00:07:24.679Z,0
2018-08-03T00:08:25.400Z,0
2018-08-03T00:09:26.141Z,0
2018-08-03T00:10:26.858Z,0
2018-08-03T00:11:27.580Z,0
2018-08-03T00:12:28.314Z,0
2018-08-03T00:13:29.035Z,0
2018-08-03T00:14:29.775Z,0
2018-08-03T00:15:30.505Z,0
2018-08-03T00:16:31.226Z,0
2018-08-03T00:17:31.959Z,0
2018-08-03T00:18:32.680Z,0
2018-08-03T00:19:33.418Z,0
2018-08-03T00:20:34.137Z,0
2018-08-03T00:21:34.858Z,0
2018-08-03T00:22:35.581Z,0
2018-08-03T00:23:36.315Z,0
2018-08-03T00:24:37.038Z,0
2018-08-03T00:25:37.773Z,0
2018-08-03T00:26:38.481Z,0
2018-08-03T00:27:39.201Z,0
2018-08-03T00:28:39.922Z,0
2018-08-03T00:29:40.643Z,0
2018-08-03T00:30:41.364Z,0
2018-08-03T00:31:42.086Z,0
2018-08-03T00:32:42.807Z,0
2018-08-03T00:33:43.527Z,0
2018-08-03T00:34:44.250Z,0
2018-08-03T00:35:44.972Z,0
2018-08-03T00:36:45.708Z,0
2018-08-03T00:37:46.429Z,0
2018-08-03T00:38:47.156Z,0
2018-08-03T00:39:47.886Z,0
2018-08-03T00:40:48.621Z,0
2018-08-03T00:41:49.339Z,0
2018-08-03T00:42:50.058Z,0
2018-08-03T00:43:50.780Z,0
2018-08-03T00:44:51.505Z,0
2018-08-03T00:45:52.237Z,0
2018-08-03T00:46:52.957Z,0
2018-08-03T00:47:53.679Z,0
2018-08-03T00:48:54.412Z,0
2018-08-03T00:49:55.130Z,0
2018-08-03T00:50:55.850Z,0
2018-08-03T00:51:56.569Z,0
2018-08-03T00:52:57.288Z,0
2018-08-03T00:53:58.007Z,0
2018-08-03T00:54:58.729Z,0
2018-08-03T00:55:59.451Z,0
2018-08-03T00:57:00.170Z,0
2018-08-03T00:58:00.891Z,0
2018-08-03T00:59:01.612Z,0
2018-08-03T01:00:02.347Z,0
2018-08-03T01:01:03.066Z,0
2018-08-03T01:02:03.802Z,0
2018-08-03T01:03:04.526Z,0
2018-08-03T01:04:05.242Z,0
2018-08-03T01:05:05.963Z,0
2018-08-03T01:06:06.682Z,0
2018-08-03T01:07:07.399Z,0
2018-08-03T01:08:08.122Z,0
2018-08-03T01:09:08.843Z,0
2018-08-03T01:10:09.562Z,0
2018-08-03T01:11:10.284Z,0
2018-08-03T01:12:11.015Z,0
2018-08-03T01:13:11.743Z,0
2018-08-03T01:14:12.480Z,0
2018-08-03T01:15:13.200Z,0
2018-08-03T01:16:13.924Z,0
2018-08-03T01:17:14.643Z,0
2018-08-03T01:18:15.360Z,0
2018-08-03T01:19:16.081Z,0
2018-08-03T01:20:16.800Z,0
2018-08-03T01:21:17.519Z,0
2018-08-03T01:22:18.250Z,0
2018-08-03T01:23:18.970Z,0
2018-08-03T01:24:19.688Z,0
2018-08-03T01:25:20.408Z,0
2018-08-03T01:26:21.142Z,0
2018-08-03T01:27:21.857Z,0
2018-08-03T01:28:22.574Z,0
2018-08-03T01:29:23.315Z,0
2018-08-03T01:30:24.042Z,0
2018-08-03T01:31:24.761Z,0
2018-08-03T01:32:25.487Z,0
2018-08-03T01:33:26.207Z,0
2018-08-03T01:34:26.926Z,0
2018-08-03T01:35:27.642Z,0
2018-08-03T01:36:28.358Z,0
2018-08-03T01:37:29.074Z,0
2018-08-03T01:38:29.793Z,0
2018-08-03T01:39:30.512Z,0
2018-08-03T01:40:31.230Z,0
2018-08-03T01:41:31.949Z,0
2018-08-03T01:42:32.679Z,0
2018-08-03T01:43:33.394Z,0
2018-08-03T01:44:34.114Z,0
2018-08-03T01:45:34.828Z,0
2018-08-03T01:46:35.544Z,0
2018-08-03T01:47:36.258Z,0
2018-08-03T01:48:36.991Z,0
2018-08-03T01:49:37.707Z,0
2018-08-03T01:50:38.423Z,0
2018-08-03T01:51:39.142Z,0
2018-08-03T01:52:39.875Z,0
2018-08-03T01:53:40.592Z,0
2018-08-03T01:54:41.322Z,0
2018-08-03T01:55:42.043Z,0
2018-08-03T01:56:42.777Z,0
2018-08-03T01:57:43.494Z,0
2018-08-03T01:58:44.225Z,0
2018-08-03T01:59:44.947Z,0
2018-08-03T02:00:45.663Z,0
2018-08-03T02:01:46.390Z,0
2018-08-03T02:02:47.106Z,0
2018-08-03T02:03:47.836Z,0
2018-08-03T02:04:48.566Z,0
2018-08-03T02:05:49.284Z,0
2018-08-03T02:06:49.998Z,0
2018-08-03T02:07:50.714Z,0
2018-08-03T02:08:51.431Z,0
2018-08-03T02:09:52.156Z,0
2018-08-03T02:10:52.874Z,0
2018-08-03T02:11:53.593Z,0
2018-08-03T02:12:54.310Z,0
2018-08-03T02:13:55.026Z,0
2018-08-03T02:14:55.744Z,0
2018-08-03T02:15:56.473Z,0
2018-08-03T02:16:57.193Z,0
2018-08-03T02:17:57.913Z,0
2018-08-03T02:18:58.632Z,0
2018-08-03T02:19:59.348Z,0
2018-08-03T02:21:00.067Z,0
2018-08-03T02:22:00.781Z,0
2018-08-03T02:23:01.497Z,0
2018-08-03T02:24:02.211Z,0
2018-08-03T02:25:02.927Z,0
2018-08-03T02:26:03.643Z,0
2018-08-03T02:27:04.359Z,0
2018-08-03T02:28:05.076Z,0
2018-08-03T02:29:05.789Z,0
2018-08-03T02:30:06.505Z,0
2018-08-03T02:31:07.230Z,0
2018-08-03T02:32:07.960Z,0
2018-08-03T02:33:08.688Z,0
2018-08-03T02:34:09.415Z,0
2018-08-03T02:35:10.130Z,0
2018-08-03T02:36:10.848Z,0
2018-08-03T02:37:11.575Z,0
2018-08-03T02:38:12.306Z,0
2018-08-03T02:39:13.023Z,0
2018-08-03T02:40:13.739Z,0
2018-08-03T02:41:14.472Z,0
2018-08-03T02:42:15.187Z,0
2018-08-03T02:43:15.903Z,0
2018-08-03T02:44:16.618Z,0
2018-08-03T02:45:17.335Z,0
2018-08-03T02:46:18.049Z,0
2018-08-03T02:47:18.765Z,0
2018-08-03T02:48:19.481Z,0
2018-08-03T02:49:20.196Z,0
2018-08-03T02:50:20.927Z,0
2018-08-03T02:51:21.642Z,0
2018-08-03T02:52:22.359Z,0
2018-08-03T02:53:23.088Z,0
2018-08-03T02:54:23.804Z,0
2018-08-03T02:55:24.516Z,0
2018-08-03T02:56:25.232Z,0
2018-08-03T02:57:25.963Z,0
2018-08-03T02:58:26.680Z,0
2018-08-03T02:59:27.410Z,0
2018-08-03T03:00:28.127Z,0
2018-08-03T03:01:28.843Z,0
2018-08-03T03:02:29.557Z,0
2018-08-03T03:03:30.273Z,0
2018-08-03T03:04:30.989Z,0
2018-08-03T03:05:31.704Z,0
2018-08-03T03:06:32.431Z,0
2018-08-03T03:07:33.146Z,0
2018-08-03T03:08:33.874Z,0
2018-08-03T03:09:34.603Z,0
2018-08-03T03:10:35.335Z,0
2018-08-03T03:11:36.049Z,0
2018-08-03T03:12:36.777Z,0
2018-08-03T03:13:37.514Z,0
2018-08-03T03:14:38.224Z,0
2018-08-03T03:15:38.952Z,0
2018-08-03T03:16:39.669Z,0
2018-08-03T03:17:40.390Z,0
2018-08-03T03:18:41.102Z,0
2018-08-03T03:19:41.843Z,0
2018-08-03T03:20:42.532Z,0
2018-08-03T03:21:43.248Z,0
2018-08-03T03:22:43.964Z,0
2018-08-03T03:23:44.686Z,0
2018-08-03T03:24:45.400Z,0
2018-08-03T03:25:46.114Z,0
2018-08-03T03:26:46.833Z,0
2018-08-03T03:27:47.552Z,0
2018-08-03T03:28:48.283Z,0
2018-08-03T03:29:49.000Z,0
2018-08-03T03:30:49.744Z,0
2018-08-03T03:31:50.443Z,0
2018-08-03T03:32:51.158Z,0
2018-08-03T03:33:51.877Z,0
2018-08-03T03:34:52.595Z,0
2018-08-03T03:35:53.321Z,0
2018-08-03T03:36:54.039Z,0
2018-08-03T03:37:54.756Z,0
2018-08-03T03:38:55.472Z,0
2018-08-03T03:39:56.201Z,0
2018-08-03T03:40:56.918Z,0
2018-08-03T03:41:57.637Z,0
2018-08-03T03:42:58.352Z,0
2018-08-03T03:43:59.068Z,0
2018-08-03T03:44:59.783Z,0
2018-08-03T03:46:00.500Z,0
2018-08-03T03:47:01.230Z,0
2018-08-03T03:48:01.961Z,0
2018-08-03T03:49:02.677Z,0
2018-08-03T03:50:03.399Z,0
2018-08-03T03:51:04.158Z,0
2018-08-03T03:52:04.846Z,0
2018-08-03T03:53:05.565Z,5
2018-08-03T03:54:06.282Z,5
2018-08-03T03:55:07.002Z,5
2018-08-03T03:56:07.721Z,5
2018-08-03T03:57:08.452Z,5
2018-08-03T03:58:09.169Z,5
2018-08-03T03:59:09.917Z,5
2018-08-03T04:00:10.606Z,5
2018-08-03T04:01:11.324Z,5
2018-08-03T04:02:12.049Z,10
2018-08-03T04:03:12.776Z,10
2018-08-03T04:04:13.493Z,10
2018-08-03T04:05:14.224Z,10
2018-08-03T04:06:14.957Z,10
2018-08-03T04:07:15.688Z,10
2018-08-03T04:08:16.407Z,10
2018-08-03T04:09:17.127Z,15
2018-08-03T04:10:17.860Z,15
2018-08-03T04:11:18.581Z,15
2018-08-03T04:12:19.313Z,15
2018-08-03T04:13:20.036Z,15
2018-08-03T04:14:20.759Z,15
2018-08-03T04:15:21.477Z,20
2018-08-03T04:16:22.197Z,20
2018-08-03T04:17:22.915Z,20
2018-08-03T04:18:23.633Z,20
2018-08-03T04:19:24.365Z,20
2018-08-03T04:20:25.085Z,25
2018-08-03T04:21:25.804Z,25
2018-08-03T04:22:26.522Z,25
2018-08-03T04:23:27.244Z,25
2018-08-03T04:24:27.962Z,25
2018-08-03T04:25:28.688Z,30
2018-08-03T04:26:29.405Z,30
2018-08-03T04:27:30.138Z,30
2018-08-03T04:28:30.860Z,30
2018-08-03T04:29:31.580Z,30
2018-08-03T04:30:32.316Z,35
2018-08-03T04:31:33.049Z,35
2018-08-03T04:32:33.770Z,35
2018-08-03T04:33:34.493Z,35
2018-08-03T04:34:35.213Z,35
2018-08-03T04:35:35.935Z,40
2018-08-03T04:36:36.668Z,40
2018-08-03T04:37:37.400Z,40
2018-08-03T04:38:38.118Z,40
2018-08-03T04:39:38.837Z,40
2018-08-03T04:40:39.559Z,45
2018-08-03T04:41:40.282Z,45
2018-08-03T04:42:41.016Z,45
2018-08-03T04:43:41.750Z,45
2018-08-03T04:44:42.472Z,45
2018-08-03T04:45:43.206Z,50
2018-08-03T04:46:43.943Z,50
2018-08-03T04:47:44.677Z,50
2018-08-03T04:48:45.451Z,50
2018-08-03T04:49:46.116Z,50
2018-08-03T04:50:46.838Z,55
2018-08-03T04:51:47.561Z,55
2018-08-03T04:52:48.281Z,55
2018-08-03T04:53:49.003Z,55
2018-08-03T04:54:49.822Z,55
2018-08-03T04:55:50.463Z,55
2018-08-03T04:56:51.182Z,55
2018-08-03T04:57:51.913Z,55
2018-08-03T04:58:52.637Z,55
2018-08-03T04:59:53.357Z,55
2018-08-03T05:00:54.079Z,60
2018-08-03T05:01:54.811Z,60
2018-08-03T05:02:55.532Z,60
2018-08-03T05:03:56.252Z,60
2018-08-03T05:04:56.975Z,60
2018-08-03T05:05:57.711Z,65
2018-08-03T05:06:58.428Z,65
2018-08-03T05:07:59.152Z,65
2018-08-03T05:08:59.884Z,65
2018-08-03T05:10:00.618Z,65
2018-08-03T05:11:01.341Z,70
2018-08-03T05:12:02.075Z,70
2018-08-03T05:13:02.801Z,70
2018-08-03T05:14:03.520Z,70
2018-08-03T05:15:48.885Z,75
2018-08-03T05:16:49.608Z,75
2018-08-03T05:17:50.328Z,75
2018-08-03T05:18:51.050Z,75
2018-08-03T05:19:51.771Z,75
2018-08-03T05:20:52.493Z,75
2018-08-03T05:21:53.215Z,80
2018-08-03T05:22:53.937Z,80
2018-08-03T05:23:54.660Z,80
2018-08-03T05:24:55.382Z,80
2018-08-03T05:25:56.101Z,80
2018-08-03T05:26:56.823Z,85
2018-08-03T05:27:57.545Z,85
2018-08-03T05:28:58.313Z,85
2018-08-03T05:29:59.091Z,90
2018-08-03T05:30:59.812Z,85
2018-08-03T05:32:00.532Z,85
2018-08-03T05:33:01.251Z,90
2018-08-03T05:34:01.987Z,90
2018-08-03T05:35:02.706Z,90
2018-08-03T05:36:03.501Z,90
2018-08-03T05:37:04.151Z,90
2018-08-03T05:38:04.873Z,95
2018-08-03T05:39:05.594Z,95
2018-08-03T05:40:06.317Z,95
2018-08-03T05:41:07.037Z,95
2018-08-03T05:42:07.759Z,95
2018-08-03T05:43:08.481Z,95
2018-08-03T05:44:09.200Z,100
2018-08-03T05:45:09.922Z,100
2018-08-03T05:46:10.658Z,100
2018-08-03T05:47:11.387Z,100
2018-08-03T05:48:12.121Z,100
2018-08-03T05:49:12.845Z,105
2018-08-03T05:50:13.635Z,105
2018-08-03T05:51:14.295Z,105
2018-08-03T05:52:15.020Z,105
2018-08-03T05:53:15.740Z,105
2018-08-03T05:54:16.466Z,105
2018-08-03T05:55:17.189Z,110
2018-08-03T05:56:17.916Z,110
2018-08-03T05:57:18.643Z,110
2018-08-03T05:58:19.369Z,110
2018-08-03T05:59:20.099Z,110
2018-08-03T06:00:20.824Z,115
2018-08-03T06:01:21.551Z,115
2018-08-03T06:02:22.280Z,115
2018-08-03T06:03:23.002Z,115
2018-08-03T06:04:23.731Z,115
2018-08-03T06:05:24.457Z,120
2018-08-03T06:06:25.186Z,120
2018-08-03T06:07:25.911Z,120
2018-08-03T06:08:26.653Z,120
2018-08-03T06:09:27.410Z,125
2018-08-03T06:10:28.112Z,125
2018-08-03T06:11:28.839Z,125
2018-08-03T06:12:29.590Z,125
2018-08-03T06:13:30.318Z,125
2018-08-03T06:14:31.046Z,125
2018-08-03T06:15:31.773Z,130
2018-08-03T06:16:32.509Z,130
2018-08-03T06:17:33.247Z,130
2018-08-03T06:18:33.963Z,130
2018-08-03T06:19:34.702Z,135
2018-08-03T06:20:35.462Z,135
2018-08-03T06:21:36.171Z,135
2018-08-03T06:22:36.897Z,135
2018-08-03T06:23:37.624Z,135
2018-08-03T06:24:38.399Z,140
2018-08-03T06:25:39.128Z,140
2018-08-03T06:26:39.856Z,140
2018-08-03T06:27:40.584Z,140
2018-08-03T06:28:41.337Z,145
2018-08-03T06:29:42.117Z,145
2018-08-03T06:30:42.792Z,145
2018-08-03T06:31:43.518Z,145
2018-08-03T06:32:44.241Z,145
2018-08-03T06:33:44.970Z,150
2018-08-03T06:34:45.697Z,150
2018-08-03T06:35:46.426Z,150
2018-08-03T06:36:47.153Z,150
2018-08-03T06:37:47.883Z,150
2018-08-03T06:38:48.608Z,150
2018-08-03T06:39:49.394Z,150
2018-08-03T06:40:50.126Z,150
2018-08-03T06:41:50.851Z,150
2018-08-03T06:42:51.582Z,155
2018-08-03T06:43:52.324Z,160
2018-08-03T06:44:53.054Z,155
2018-08-03T06:45:53.784Z,155
2018-08-03T06:46:54.507Z,160
2018-08-03T06:47:55.234Z,160
2018-08-03T06:48:55.963Z,160
2018-08-03T06:49:56.692Z,165
2018-08-03T06:50:57.420Z,165
2018-08-03T06:51:58.161Z,165
2018-08-03T06:52:58.902Z,165
2018-08-03T06:53:59.632Z,170
2018-08-03T06:55:00.374Z,170
2018-08-03T06:56:01.101Z,170
2018-08-03T06:57:01.824Z,170
2018-08-03T06:58:02.554Z,175
2018-08-03T06:59:03.288Z,175
2018-08-03T07:00:04.002Z,180
2018-08-03T07:01:04.762Z,175
2018-08-03T07:02:05.470Z,180
2018-08-03T07:03:06.222Z,180
2018-08-03T07:04:06.952Z,180
2018-08-03T07:05:07.676Z,90
2018-08-03T07:06:08.400Z,75
2018-08-03T07:07:09.124Z,80
2018-08-03T07:08:09.853Z,80
2018-08-03T07:09:10.581Z,80
2018-08-03T07:10:11.305Z,80
2018-08-03T07:11:12.041Z,80
2018-08-03T07:12:12.765Z,80
2018-08-03T07:13:13.504Z,80
2018-08-03T07:14:14.232Z,85
2018-08-03T07:15:14.957Z,85
2018-08-03T07:16:15.681Z,85
2018-08-03T07:17:16.425Z,85
2018-08-03T07:18:17.145Z,85
2018-08-03T07:19:17.869Z,85
2018-08-03T07:20:18.717Z,90
2018-08-03T07:21:19.318Z,90
2018-08-03T07:22:20.046Z,90
2018-08-03T07:23:20.785Z,90
2018-08-03T07:24:21.510Z,90
2018-08-03T07:25:22.239Z,90
2018-08-03T07:26:22.965Z,90
2018-08-03T07:27:23.692Z,95
2018-08-03T07:28:24.416Z,95
2018-08-03T07:29:25.155Z,95
2018-08-03T07:30:25.878Z,95
2018-08-03T07:31:26.605Z,95
2018-08-03T07:32:27.329Z,95
2018-08-03T07:33:28.056Z,100
2018-08-03T07:34:28.783Z,100
2018-08-03T07:35:29.508Z,100
2018-08-03T07:36:30.237Z,100
2018-08-03T07:37:30.959Z,100
2018-08-03T07:38:31.700Z,100
2018-08-03T07:39:32.430Z,100
2018-08-03T07:40:33.156Z,100
2018-08-03T07:41:33.895Z,100
2018-08-03T07:42:34.618Z,100
2018-08-03T07:43:35.402Z,100
2018-08-03T07:44:36.089Z,100
2018-08-03T07:45:36.797Z,105
2018-08-03T07:46:37.525Z,105
2018-08-03T07:47:38.252Z,105
2018-08-03T07:48:38.979Z,105
2018-08-03T07:49:39.721Z,105
2018-08-03T07:50:40.455Z,105
2018-08-03T07:51:41.176Z,105
2018-08-03T07:52:41.901Z,110
2018-08-03T07:53:42.627Z,110
2018-08-03T07:54:43.369Z,110
2018-08-03T07:55:44.097Z,110
2018-08-03T07:56:44.823Z,110
2018-08-03T07:57:45.551Z,115
2018-08-03T07:58:46.277Z,115
2018-08-03T07:59:47.020Z,115
2018-08-03T08:00:47.746Z,115
2018-08-03T08:01:48.485Z,115
2018-08-03T08:02:49.226Z,120
2018-08-03T08:03:49.953Z,120
2018-08-03T08:04:50.693Z,120
2018-08-03T08:05:51.421Z,120
2018-08-03T08:06:52.148Z,120
2018-08-03T08:07:52.877Z,120
2018-08-03T08:08:53.611Z,125
2018-08-03T08:09:54.340Z,125
2018-08-03T08:10:55.074Z,125
2018-08-03T08:11:55.828Z,125
2018-08-03T08:12:56.548Z,130
2018-08-03T08:13:57.273Z,135
2018-08-03T08:14:57.999Z,130
2018-08-03T08:15:58.738Z,135
2018-08-03T08:16:59.515Z,135
2018-08-03T08:18:00.205Z,135
2018-08-03T08:19:00.932Z,135
2018-08-03T08:20:01.663Z,135
2018-08-03T08:21:02.399Z,140
2018-08-03T08:22:03.125Z,140
2018-08-03T08:23:03.851Z,140
2018-08-03T08:24:04.579Z,140
2018-08-03T08:25:05.321Z,140
2018-08-03T08:26:06.112Z,145
2018-08-03T08:27:06.792Z,145
2018-08-03T08:28:07.518Z,145
2018-08-03T08:29:08.259Z,150
2018-08-03T08:30:08.987Z,150
2018-08-03T08:31:09.717Z,150
2018-08-03T08:32:10.444Z,150
2018-08-03T08:33:11.174Z,155
2018-08-03T08:34:11.915Z,155
2018-08-03T08:35:12.657Z,155
2018-08-03T08:36:13.388Z,160
2018-08-03T08:37:14.111Z,160
2018-08-03T08:38:14.839Z,160
2018-08-03T08:39:15.566Z,160
2018-08-03T08:40:16.296Z,160
2018-08-03T08:41:17.025Z,160
2018-08-03T08:42:17.764Z,160
2018-08-03T08:43:18.495Z,165
2018-08-03T08:44:19.234Z,165
2018-08-03T08:45:19.961Z,165
2018-08-03T08:46:20.690Z,170
2018-08-03T08:47:21.418Z,170
2018-08-03T08:48:22.165Z,175
2018-08-03T08:49:22.903Z,175
2018-08-03T08:50:23.628Z,175
2018-08-03T08:51:24.356Z,180
2018-08-03T08:52:25.087Z,185
2018-08-03T08:53:25.816Z,185
2018-08-03T08:54:26.546Z,190
2018-08-03T08:55:27.271Z,190
2018-08-03T08:56:28.000Z,195
2018-08-03T08:57:28.729Z,200
2018-08-03T08:58:29.461Z,210
2018-08-03T08:59:30.227Z,220
2018-08-03T09:00:30.919Z,245
2018-08-03T09:01:31.661Z,320
2018-08-03T09:02:32.407Z,810
2018-08-03T09:03:33.139Z,1215
2018-08-03T09:04:33.876Z,1255
2018-08-03T09:05:34.607Z,1280
2018-08-03T09:06:35.339Z,1290
2018-08-03T09:07:36.129Z,1355
2018-08-03T09:08:36.823Z,1365
2018-08-03T09:09:37.558Z,1305
2018-08-03T09:10:38.294Z,1345
2018-08-03T09:11:39.029Z,1435
2018-08-03T09:12:39.789Z,1405
2018-08-03T09:13:40.497Z,1350
2018-08-03T09:14:41.234Z,1360
2018-08-03T09:15:41.974Z,1385
2018-08-03T09:16:42.707Z,1380
2018-08-03T09:17:43.444Z,1315
2018-08-03T09:18:44.186Z,1330
2018-08-03T09:19:44.926Z,1440
2018-08-03T09:20:45.665Z,1420
2018-08-03T09:21:46.406Z,1360
2018-08-03T09:22:47.144Z,1320
2018-08-03T09:23:47.888Z,1255
2018-08-03T09:24:48.646Z,1235
2018-08-03T09:26:34.050Z,1315
2018-08-03T09:27:34.796Z,1380
2018-08-03T09:28:35.537Z,1415
2018-08-03T09:29:36.281Z,1435
2018-08-03T09:30:37.023Z,1435
2018-08-03T09:31:37.766Z,1470
2018-08-03T09:32:38.510Z,1520
2018-08-03T09:33:39.255Z,1490
2018-08-03T09:34:40.000Z,1450
2018-08-03T09:35:40.743Z,1435
2018-08-03T09:36:41.487Z,1465
2018-08-03T09:37:42.231Z,1480
2018-08-03T09:38:42.977Z,1490
2018-08-03T09:39:43.721Z,1460
2018-08-03T09:40:44.465Z,1465
2018-08-03T09:41:45.212Z,1475
2018-08-03T09:42:45.986Z,1530
2018-08-03T09:43:46.696Z,1605
2018-08-03T09:44:47.438Z,1645
2018-08-03T09:45:48.192Z,1685
2018-08-03T09:46:48.933Z,1670
2018-08-03T09:47:49.674Z,1625
2018-08-03T09:48:50.415Z,1625
2018-08-03T09:49:51.158Z,1645
2018-08-03T09:50:51.900Z,1630
2018-08-03T09:51:52.642Z,1585
2018-08-03T09:52:53.380Z,1605
2018-08-03T09:53:54.132Z,1655
2018-08-03T09:54:54.870Z,1640
2018-08-03T09:55:55.610Z,1650
2018-08-03T09:56:56.347Z,1670
2018-08-03T09:57:57.088Z,1680
2018-08-03T09:58:57.825Z,1720
2018-08-03T09:59:58.576Z,1670
2018-08-03T10:00:59.315Z,1605
2018-08-03T10:02:00.057Z,1605
2018-08-03T10:03:00.795Z,1670
2018-08-03T10:04:01.532Z,1765
2018-08-03T10:05:02.271Z,1760
2018-08-03T10:06:03.012Z,1725
2018-08-03T10:07:03.749Z,1740
2018-08-03T10:08:04.490Z,1775
2018-08-03T10:09:05.228Z,1725
2018-08-03T10:10:05.969Z,1700
2018-08-03T10:11:06.708Z,1805
2018-08-03T10:12:07.446Z,1795
2018-08-03T10:13:08.186Z,1705
2018-08-03T10:14:08.927Z,1730
2018-08-03T10:15:09.678Z,1800
2018-08-03T10:16:10.415Z,1855
2018-08-03T10:17:11.172Z,1810
2018-08-03T10:18:11.909Z,1745
2018-08-03T10:19:12.649Z,1750
2018-08-03T10:20:13.389Z,1730
2018-08-03T10:21:14.141Z,1770
2018-08-03T10:23:01.887Z,1630
2018-08-03T10:24:02.638Z,1710
2018-08-03T10:25:03.392Z,1725
2018-08-03T10:26:04.144Z,1735
2018-08-03T10:27:04.883Z,1695
2018-08-03T10:28:05.621Z,1685
2018-08-03T10:29:06.395Z,1705
2018-08-03T10:30:07.120Z,1820
2018-08-03T10:31:07.866Z,1785
2018-08-03T10:32:08.638Z,1770
2018-08-03T10:33:09.409Z,1775
2018-08-03T10:34:10.184Z,1795
2018-08-03T10:35:10.985Z,1840
2018-08-03T10:36:11.709Z,1675
2018-08-03T10:37:12.452Z,1630
2018-08-03T10:38:13.211Z,1655
2018-08-03T10:39:13.960Z,1600
2018-08-03T10:40:14.699Z,1645
2018-08-03T10:41:15.439Z,1665
2018-08-03T10:42:16.180Z,1650
2018-08-03T10:43:17.002Z,1680
2018-08-03T10:44:17.667Z,205
2018-08-03T10:45:18.420Z,175
2018-08-03T10:46:19.157Z,155
2018-08-03T10:47:19.905Z,185
2018-08-03T10:48:20.643Z,925
2018-08-03T10:49:21.381Z,1720
2018-08-03T10:50:22.131Z,650
2018-08-03T10:51:22.945Z,675
2018-08-03T10:52:23.642Z,1810
2018-08-03T10:53:24.390Z,1870
2018-08-03T10:54:25.150Z,1840
2018-08-03T10:55:25.970Z,1795
2018-08-03T10:56:26.655Z,1815
2018-08-03T10:57:27.393Z,1815
2018-08-03T10:58:28.162Z,1825
2018-08-03T10:59:28.913Z,1815
2018-08-03T11:00:29.661Z,1770
2018-08-03T11:01:30.478Z,1700
2018-08-03T11:02:31.139Z,1660
2018-08-03T11:03:31.873Z,1855
2018-08-03T11:04:32.613Z,1905
2018-08-03T11:05:33.363Z,1820
2018-08-03T11:06:34.099Z,1815
2018-08-03T11:07:34.835Z,1750
2018-08-03T11:08:35.573Z,1825
2018-08-03T11:09:36.310Z,1805
2018-08-03T11:10:37.048Z,1720
2018-08-03T11:11:37.796Z,1215
2018-08-03T11:12:38.531Z,475
2018-08-03T11:13:39.284Z,330
2018-08-03T11:14:40.005Z,310
2018-08-03T11:15:40.733Z,295
2018-08-03T11:16:41.478Z,285
2018-08-03T11:17:42.213Z,275
2018-08-03T11:18:42.946Z,275
2018-08-03T11:19:43.692Z,270
2018-08-03T11:20:44.425Z,260
2018-08-03T11:21:45.159Z,255
2018-08-03T11:22:45.892Z,255
2018-08-03T11:25:03.755Z,245
2018-08-03T11:26:04.490Z,250
2018-08-03T11:27:05.235Z,245
2018-08-03T11:28:05.972Z,245
2018-08-03T11:29:06.724Z,250
2018-08-03T11:30:07.458Z,255
2018-08-03T11:31:08.193Z,265
2018-08-03T11:32:08.932Z,245
2018-08-03T11:33:09.675Z,245
2018-08-03T11:34:10.409Z,235
2018-08-03T11:35:11.179Z,240
2018-08-03T11:36:11.879Z,235
2018-08-03T11:37:12.632Z,230
2018-08-03T11:38:13.384Z,220
2018-08-03T11:39:14.134Z,225
2018-08-03T11:40:14.868Z,225
2018-08-03T11:41:15.605Z,235
2018-08-03T11:42:16.339Z,230
2018-08-03T11:43:17.084Z,230
2018-08-03T11:44:17.828Z,225
2018-08-03T11:45:18.567Z,235
2018-08-03T11:46:19.303Z,235
2018-08-03T11:47:20.043Z,245
2018-08-03T11:48:20.795Z,240
2018-08-03T11:49:21.517Z,230
2018-08-03T11:50:22.248Z,225
2018-08-03T11:51:22.984Z,215
2018-08-03T11:52:23.722Z,210
2018-08-03T11:53:24.457Z,205
2018-08-03T11:54:25.195Z,210
2018-08-03T11:55:25.929Z,215
2018-08-03T11:56:26.665Z,220
2018-08-03T11:57:27.419Z,225
2018-08-03T11:58:28.155Z,225
2018-08-03T11:59:28.894Z,225
2018-08-03T12:00:29.637Z,225
2018-08-03T12:01:30.369Z,220
2018-08-03T12:02:31.115Z,215
2018-08-03T12:03:31.864Z,215
2018-08-03T12:04:32.601Z,220
2018-08-03T12:05:33.341Z,215
2018-08-03T12:06:34.168Z,220
2018-08-03T12:07:34.814Z,215
2018-08-03T12:08:35.566Z,215
2018-08-03T12:09:36.303Z,205
2018-08-03T12:10:37.036Z,210
2018-08-03T12:11:37.771Z,205
2018-08-03T12:12:38.615Z,205
2018-08-03T12:13:39.256Z,205
2018-08-03T12:14:39.994Z,205
2018-08-03T12:15:40.731Z,200
2018-08-03T12:16:41.465Z,200
2018-08-03T12:17:42.199Z,200
2018-08-03T12:18:42.930Z,195
2018-08-03T12:19:43.676Z,195
2018-08-03T12:20:44.419Z,200
2018-08-03T12:21:45.140Z,195
2018-08-03T12:22:45.878Z,190
2018-08-03T12:23:46.621Z,190
2018-08-03T12:24:47.359Z,190
2018-08-03T12:25:48.096Z,185
2018-08-03T12:26:48.840Z,170
2018-08-03T12:27:49.574Z,170
2018-08-03T12:28:50.314Z,175
2018-08-03T12:29:51.051Z,180
2018-08-03T12:30:51.793Z,180
2018-08-03T12:31:52.542Z,190
2018-08-03T12:32:53.274Z,185
2018-08-03T12:33:54.009Z,195
2018-08-03T12:34:54.758Z,190
2018-08-03T12:35:55.493Z,195
2018-08-03T12:36:56.231Z,195
2018-08-03T12:37:56.968Z,205
2018-08-03T12:38:57.712Z,210
2018-08-03T12:39:58.449Z,210
2018-08-03T12:40:59.182Z,190
2018-08-03T12:41:59.932Z,135
2018-08-03T12:43:00.670Z,165
2018-08-03T12:44:01.418Z,145
2018-08-03T12:45:02.153Z,175
2018-08-03T12:46:02.959Z,180
2018-08-03T12:47:03.635Z,180
2018-08-03T12:48:04.371Z,160
2018-08-03T12:49:05.103Z,180
2018-08-03T12:50:05.840Z,180
2018-08-03T12:51:06.583Z,180
2018-08-03T12:52:07.315Z,180
2018-08-03T12:53:08.050Z,140
2018-08-03T12:54:08.792Z,150
2018-08-03T12:55:09.530Z,175
2018-08-03T12:56:10.262Z,170
2018-08-03T12:57:10.996Z,170
2018-08-03T12:58:11.734Z,180
2018-08-03T12:59:12.470Z,190
2018-08-03T13:00:13.201Z,185
2018-08-03T13:01:13.941Z,185
2018-08-03T13:02:14.678Z,185
2018-08-03T13:03:15.428Z,180
2018-08-03T13:04:16.184Z,185
2018-08-03T13:05:16.900Z,190
2018-08-03T13:06:17.631Z,190
2018-08-03T13:07:18.530Z,190
2018-08-03T13:08:19.237Z,185
2018-08-03T13:09:19.854Z,175
2018-08-03T13:10:20.591Z,175
2018-08-03T13:11:21.329Z,170
2018-08-03T13:12:22.081Z,170
2018-08-03T13:13:22.829Z,170
2018-08-03T13:14:23.571Z,170
2018-08-03T13:15:24.309Z,160
2018-08-03T13:16:25.044Z,130
2018-08-03T13:17:25.794Z,170
2018-08-03T13:18:26.531Z,135
2018-08-03T13:19:27.268Z,120
2018-08-03T13:20:28.017Z,120
2018-08-03T13:21:28.752Z,120
2018-08-03T13:22:29.485Z,115
2018-08-03T13:23:30.217Z,110
2018-08-03T13:24:30.962Z,105
2018-08-03T13:25:31.693Z,100
2018-08-03T13:26:32.429Z,90
2018-08-03T13:27:33.167Z,85
2018-08-03T13:28:33.912Z,85
2018-08-03T13:29:34.642Z,90
2018-08-03T13:30:35.372Z,90
2018-08-03T13:31:36.107Z,90
2018-08-03T13:32:36.836Z,95
2018-08-03T13:33:37.565Z,105
2018-08-03T13:34:38.297Z,150
2018-08-03T13:35:39.024Z,140
2018-08-03T13:36:39.755Z,140
2018-08-03T13:37:40.486Z,145
2018-08-03T13:38:41.216Z,145
2018-08-03T13:39:41.947Z,90
2018-08-03T13:40:42.685Z,105
2018-08-03T13:41:43.415Z,135
2018-08-03T13:42:44.148Z,130
2018-08-03T13:43:44.875Z,135
2018-08-03T13:44:45.668Z,135
2018-08-03T13:45:46.350Z,130
2018-08-03T13:46:47.093Z,125
2018-08-03T13:47:47.822Z,120
2018-08-03T13:48:48.568Z,120
2018-08-03T13:49:49.297Z,120
2018-08-03T13:50:50.031Z,125
2018-08-03T13:51:50.763Z,125
2018-08-03T13:52:51.507Z,125
2018-08-03T13:53:52.238Z,125
2018-08-03T13:54:52.967Z,125
2018-08-03T13:55:53.697Z,125
2018-08-03T13:56:54.443Z,125
2018-08-03T13:57:55.215Z,125
2018-08-03T13:58:55.911Z,125
2018-08-03T13:59:56.642Z,125
2018-08-03T14:00:57.377Z,120
2018-08-03T14:01:58.122Z,120
2018-08-03T14:02:58.854Z,120
2018-08-03T14:03:59.683Z,120
2018-08-03T14:05:00.320Z,115
2018-08-03T14:06:01.048Z,115
2018-08-03T14:07:01.791Z,115
2018-08-03T14:08:02.521Z,80
2018-08-03T14:09:03.253Z,65
2018-08-03T14:10:03.979Z,65
2018-08-03T14:11:04.708Z,65
2018-08-03T14:12:05.486Z,65
2018-08-03T14:13:06.167Z,65
2018-08-03T14:14:06.899Z,65
2018-08-03T14:15:07.641Z,65
2018-08-03T14:16:08.372Z,65
2018-08-03T14:17:09.109Z,65